createdAt,value
2023-05-25T00:00:16.337Z,43.75
2023-05-25T00:02:46.613Z,38.25
2023-05-25T00:07:44.221Z,38.90
2023-05-25T00:10:14.838Z,46.70
2023-05-25T00:12:43.876Z,40.17
2023-05-25T00:15:13.236Z,38.05
2023-05-25T00:17:42.398Z,44.53
2023-05-25T00:20:13.967Z,38.25
2023-05-25T00:22:46.184Z,39.67
2023-05-25T00:25:16.699Z,39.10
2023-05-25T00:27:45.729Z,38.83
2023-05-25T00:30:14.873Z,37.83
2023-05-25T00:32:45.368Z,46.08
2023-05-25T00:35:14.304Z,47.75
2023-05-25T00:37:42.904Z,48.60
2023-05-25T00:40:15.557Z,45.35
2023-05-25T00:42:46.285Z,52.05
2023-05-25T00:45:15.290Z,50.30
2023-05-25T00:47:44.876Z,52.60
2023-05-25T00:52:46.116Z,51.08
2023-05-25T00:55:17.349Z,55.42
2023-05-25T00:57:50.865Z,55.10
2023-05-25T01:00:21.426Z,53.72
2023-05-25T01:02:53.059Z,57.33
2023-05-25T01:05:25.321Z,61.30
2023-05-25T01:07:54.702Z,64.25
2023-05-25T01:10:26.679Z,63.33
2023-05-25T01:12:57.541Z,70.15
2023-05-25T01:15:26.640Z,75.22
2023-05-25T01:20:30.069Z,64.63
2023-05-25T01:23:02.035Z,64.78
2023-05-25T01:25:35.908Z,72.25
2023-05-25T01:28:07.329Z,73.60
2023-05-25T01:30:38.950Z,68.75
2023-05-25T01:33:08.938Z,69.43
2023-05-25T01:35:38.525Z,66.13
2023-05-25T01:38:09.035Z,72.60
2023-05-25T01:40:37.854Z,64.47
2023-05-25T01:43:06.922Z,62.63
2023-05-25T01:45:36.173Z,68.03
2023-05-25T01:48:09.265Z,61.35
2023-05-25T01:50:43.051Z,69.57
2023-05-25T01:53:16.572Z,59.10
2023-05-25T01:55:51.491Z,60.55
2023-05-25T01:58:21.384Z,59.88
2023-05-25T02:00:51.390Z,69.00
2023-05-25T02:03:21.291Z,66.05
2023-05-25T02:05:51.578Z,60.38
2023-05-25T02:08:22.429Z,60.28
2023-05-25T02:13:20.146Z,61.70
2023-05-25T02:15:49.129Z,59.60
2023-05-25T02:18:18.332Z,53.72
2023-05-25T02:20:48.482Z,64.20
2023-05-25T02:23:18.783Z,66.47
2023-05-25T02:25:48.902Z,59.92
2023-05-25T02:28:18.419Z,56.47
2023-05-25T02:30:47.368Z,58.65
2023-05-25T02:33:16.449Z,57.50
2023-05-25T02:35:45.808Z,52.47
2023-05-25T02:38:15.380Z,50.58
2023-05-25T02:40:44.089Z,52.20
2023-05-25T02:43:14.560Z,54.45
2023-05-25T02:45:43.785Z,59.25
2023-05-25T02:48:13.182Z,54.03
2023-05-25T02:53:15.468Z,62.80
2023-05-25T02:55:44.299Z,50.03
2023-05-25T02:58:20.415Z,49.58
2023-05-25T03:01:10.919Z,56.17
2023-05-25T03:03:44.709Z,58.03
2023-05-25T03:06:14.268Z,58.08
2023-05-25T03:08:43.283Z,58.88
2023-05-25T03:11:12.348Z,63.90
2023-05-25T03:13:43.078Z,58.25
2023-05-25T03:16:12.822Z,66.18
2023-05-25T03:18:41.792Z,59.55
2023-05-25T03:21:10.943Z,52.08
2023-05-25T03:23:39.995Z,56.05
2023-05-25T03:26:10.696Z,58.88
2023-05-25T03:28:39.887Z,64.75
2023-05-25T03:31:11.016Z,57.60
2023-05-25T03:33:40.222Z,56.22
2023-05-25T03:36:10.197Z,56.45
2023-05-25T03:38:39.568Z,55.05
2023-05-25T03:41:08.721Z,59.25
2023-05-25T03:43:37.472Z,55.72
2023-05-25T03:46:10.307Z,61.20
2023-05-25T03:48:39.463Z,56.90
2023-05-25T03:51:08.559Z,61.92
2023-05-25T03:53:37.608Z,55.80
2023-05-25T03:56:07.524Z,61.58
2023-05-25T03:58:38.821Z,52.10
2023-05-25T04:01:09.881Z,58.55
2023-05-25T04:03:39.178Z,56.78
2023-05-25T04:06:08.952Z,66.13
2023-05-25T04:08:41.190Z,56.30
2023-05-25T04:11:10.396Z,57.78
2023-05-25T04:13:40.479Z,62.72
2023-05-25T04:16:13.534Z,49.47
2023-05-25T04:18:43.525Z,56.55
2023-05-25T04:21:12.551Z,57.97
2023-05-25T04:23:43.288Z,57.15
2023-05-25T04:26:12.542Z,55.35
2023-05-25T04:28:43.458Z,48.08
2023-05-25T04:31:25.100Z,51.22
2023-05-25T04:34:09.812Z,49.75
2023-05-25T04:36:44.957Z,56.08
2023-05-25T04:39:16.286Z,49.35
2023-05-25T04:41:51.865Z,55.65
2023-05-25T04:44:22.512Z,43.50
2023-05-25T04:46:55.706Z,54.88
2023-05-25T04:49:35.884Z,56.13
2023-05-25T04:52:05.617Z,52.80
2023-05-25T04:54:35.566Z,51.22
2023-05-25T04:57:05.311Z,46.60
2023-05-25T04:59:34.710Z,51.17
2023-05-25T05:02:05.551Z,46.00
2023-05-25T05:07:03.646Z,46.60
2023-05-25T05:09:33.430Z,44.78
2023-05-25T05:12:03.864Z,48.25
2023-05-25T05:14:38.382Z,50.50
2023-05-25T05:17:08.845Z,43.47
2023-05-25T05:19:37.639Z,50.08
2023-05-25T05:22:09.892Z,45.00
2023-05-25T05:24:40.493Z,46.33
2023-05-25T05:27:09.538Z,53.35
2023-05-25T05:29:46.539Z,45.17
2023-05-25T05:32:19.353Z,48.80
2023-05-25T05:34:48.171Z,45.83
2023-05-25T05:37:34.473Z,52.42
2023-05-25T05:40:03.837Z,44.42
2023-05-25T05:42:33.755Z,46.28
2023-05-25T05:45:02.843Z,50.70
2023-05-25T05:47:34.086Z,47.13
2023-05-25T05:50:03.678Z,50.05
2023-05-25T05:52:32.631Z,49.60
2023-05-25T05:55:01.921Z,47.85
2023-05-25T05:57:31.450Z,43.08
2023-05-25T06:00:01.106Z,41.63
2023-05-25T06:02:30.198Z,40.15
2023-05-25T06:05:01.721Z,46.25
2023-05-25T06:07:31.041Z,39.75
2023-05-25T06:10:00.181Z,39.20
2023-05-25T06:12:29.280Z,42.22
2023-05-25T06:14:58.537Z,41.30
2023-05-25T06:17:27.885Z,39.55
2023-05-25T06:19:56.552Z,43.85
2023-05-25T06:22:30.235Z,43.33
2023-05-25T06:24:59.723Z,44.63
2023-05-25T06:27:29.834Z,41.05
2023-05-25T06:29:58.972Z,42.53
2023-05-25T06:32:28.197Z,43.95
2023-05-25T06:34:56.843Z,39.95
2023-05-25T06:37:26.018Z,38.15
2023-05-25T06:39:57.645Z,38.70
2023-05-25T06:42:26.831Z,36.60
2023-05-25T06:44:58.606Z,42.63
2023-05-25T06:47:29.923Z,36.85
2023-05-25T06:49:59.833Z,39.38
2023-05-25T06:52:29.430Z,36.92
2023-05-25T06:55:00.044Z,38.22
2023-05-25T06:57:29.103Z,39.53
2023-05-25T06:59:58.088Z,37.85
2023-05-25T07:02:27.199Z,41.53
2023-05-25T07:04:55.856Z,39.50
2023-05-25T07:07:24.893Z,35.53
2023-05-25T07:09:53.998Z,40.53
2023-05-25T07:12:24.436Z,38.25
2023-05-25T07:14:53.468Z,40.60
2023-05-25T07:17:22.601Z,39.97
2023-05-25T07:19:51.298Z,33.65
2023-05-25T07:22:20.463Z,38.05
2023-05-25T07:24:49.434Z,40.47
2023-05-25T07:27:19.842Z,34.13
2023-05-25T07:29:50.527Z,37.03
2023-05-25T07:32:19.596Z,38.92
2023-05-25T07:34:48.125Z,38.22
2023-05-25T07:37:17.176Z,38.38
2023-05-25T07:39:46.206Z,38.97
2023-05-25T07:42:20.880Z,35.33
2023-05-25T07:44:51.574Z,34.10
2023-05-25T07:47:20.581Z,35.28
2023-05-25T07:49:49.234Z,32.45
2023-05-25T07:52:19.067Z,33.42
2023-05-25T07:54:48.239Z,33.83
2023-05-25T07:57:17.302Z,41.47
2023-05-25T07:59:46.337Z,40.58
2023-05-25T08:02:16.926Z,33.70
2023-05-25T08:07:14.808Z,35.83
2023-05-25T08:09:44.048Z,34.78
2023-05-25T08:12:37.984Z,38.33
2023-05-25T08:15:02.025Z,35.47
2023-05-25T08:17:32.452Z,31.42
2023-05-25T08:20:01.495Z,32.92
2023-05-25T08:22:30.213Z,34.20
2023-05-25T08:24:59.341Z,31.08
2023-05-25T08:27:28.230Z,31.95
2023-05-25T08:29:57.426Z,32.38
2023-05-25T08:32:26.554Z,30.52
2023-05-25T08:34:57.221Z,29.45
2023-05-25T08:37:26.433Z,30.45
2023-05-25T08:39:55.542Z,31.40
2023-05-25T08:42:24.738Z,30.25
2023-05-25T08:44:53.768Z,31.50
2023-05-25T08:47:24.328Z,31.50
2023-05-25T08:49:58.269Z,32.70
2023-05-25T08:52:58.862Z,30.65
2023-05-25T08:55:49.270Z,30.63
2023-05-25T08:58:22.292Z,29.05
2023-05-25T09:00:57.515Z,29.35
2023-05-25T09:03:27.093Z,28.65
2023-05-25T09:05:58.442Z,30.90
2023-05-25T09:08:27.726Z,30.10
2023-05-25T09:10:57.074Z,27.35
2023-05-25T09:13:26.183Z,29.67
2023-05-25T09:15:55.202Z,29.60
2023-05-25T09:18:24.216Z,29.58
2023-05-25T09:20:53.609Z,30.27
2023-05-25T09:23:24.289Z,31.65
2023-05-25T09:25:53.263Z,33.15
2023-05-25T09:28:26.846Z,32.13
2023-05-25T09:30:57.718Z,28.42
2023-05-25T09:33:26.845Z,31.48
2023-05-25T09:35:56.304Z,31.33
2023-05-25T09:38:27.728Z,34.47
2023-05-25T09:40:57.592Z,29.65
2023-05-25T09:43:40.509Z,31.80
2023-05-25T09:46:12.927Z,32.78
2023-05-25T09:48:43.403Z,27.05
2023-05-25T09:51:13.189Z,32.17
2023-05-25T09:53:44.438Z,30.13
2023-05-25T09:56:13.635Z,29.35
2023-05-25T09:58:42.804Z,30.23
2023-05-25T10:01:12.977Z,26.95
2023-05-25T10:03:59.721Z,26.88
2023-05-25T10:06:34.207Z,25.60
2023-05-25T10:09:05.605Z,31.48
2023-05-25T10:11:36.335Z,26.13
2023-05-25T10:14:08.647Z,24.10
2023-05-25T10:16:38.852Z,23.45
2023-05-25T10:19:14.934Z,22.25
2023-05-25T10:21:44.479Z,21.60
2023-05-25T10:24:21.650Z,24.15
2023-05-25T10:26:52.220Z,22.42
2023-05-25T10:29:22.337Z,19.45
2023-05-25T10:31:51.592Z,22.23
2023-05-25T10:34:21.466Z,23.45
2023-05-25T10:36:50.882Z,24.42
2023-05-25T10:39:21.679Z,23.08
2023-05-25T10:41:51.769Z,16.98
2023-05-25T10:46:50.037Z,20.30
2023-05-25T10:49:28.640Z,22.70
2023-05-25T10:52:01.287Z,20.65
2023-05-25T10:54:33.191Z,17.58
2023-05-25T10:57:12.876Z,17.90
2023-05-25T11:02:16.213Z,17.67
2023-05-25T11:04:45.434Z,18.17
2023-05-25T11:07:16.987Z,18.83
2023-05-25T11:09:58.842Z,21.45
2023-05-25T11:12:28.220Z,16.83
2023-05-25T11:15:16.653Z,20.73
2023-05-25T11:17:48.109Z,14.77
2023-05-25T11:20:29.135Z,20.70
2023-05-25T11:22:59.396Z,17.10
2023-05-25T11:25:40.433Z,20.38
2023-05-25T11:28:11.992Z,14.23
2023-05-25T11:30:42.497Z,14.40
2023-05-25T11:33:11.755Z,15.55
2023-05-25T11:35:41.794Z,17.30
2023-05-25T11:38:11.169Z,18.75
2023-05-25T11:40:41.195Z,20.00
2023-05-25T11:43:11.756Z,13.93
2023-05-25T11:45:41.626Z,15.82
2023-05-25T11:48:15.379Z,13.00
2023-05-25T11:50:44.783Z,15.02
2023-05-25T11:53:15.026Z,12.18
2023-05-25T11:55:57.697Z,13.20
2023-05-25T11:58:35.483Z,13.70
2023-05-25T12:01:15.291Z,12.63
2023-05-25T12:03:44.704Z,17.00
2023-05-25T12:06:27.754Z,15.38
2023-05-25T12:08:57.286Z,13.65
2023-05-25T12:11:31.704Z,11.10
2023-05-25T12:14:01.221Z,14.23
2023-05-25T12:16:30.400Z,11.82
2023-05-25T12:18:59.801Z,14.15
2023-05-25T12:21:29.123Z,11.25
2023-05-25T12:23:58.345Z,16.33
2023-05-25T12:26:27.776Z,15.52
2023-05-25T12:29:04.930Z,11.07
2023-05-25T12:31:35.070Z,13.60
2023-05-25T12:34:06.075Z,14.23
2023-05-25T12:36:45.630Z,14.15
2023-05-25T12:39:16.242Z,14.52
2023-05-25T12:41:46.708Z,10.75
2023-05-25T12:44:25.558Z,11.45
2023-05-25T12:46:55.425Z,16.13
2023-05-25T12:49:31.438Z,14.40
2023-05-25T12:52:01.725Z,12.25
2023-05-25T12:54:43.868Z,21.52
2023-05-25T12:57:14.620Z,14.57
2023-05-25T12:59:45.723Z,12.70
2023-05-25T13:02:15.950Z,10.63
2023-05-25T13:04:44.932Z,10.90
2023-05-25T13:07:13.988Z,11.43
2023-05-25T13:09:43.083Z,15.03
2023-05-25T13:12:12.998Z,17.07
2023-05-25T13:14:41.990Z,9.73
2023-05-25T13:17:12.442Z,9.53
2023-05-25T13:19:41.749Z,12.02
2023-05-25T13:22:11.136Z,17.58
2023-05-25T13:24:40.618Z,12.32
2023-05-25T13:29:38.912Z,8.45
2023-05-25T13:32:08.440Z,9.18
2023-05-25T13:34:39.162Z,9.23
2023-05-25T13:37:08.344Z,12.40
2023-05-25T13:39:37.586Z,9.10
2023-05-25T13:42:07.785Z,10.43
2023-05-25T13:44:37.292Z,10.18
2023-05-25T13:47:06.827Z,9.40
2023-05-25T13:49:35.580Z,13.00
2023-05-25T13:52:06.419Z,13.27
2023-05-25T13:54:35.679Z,8.85
2023-05-25T13:57:04.924Z,10.53
2023-05-25T13:59:33.978Z,14.43
2023-05-25T14:02:04.287Z,12.30
2023-05-25T14:04:33.045Z,12.05
2023-05-25T14:07:02.758Z,12.63
2023-05-25T14:09:33.267Z,8.70
2023-05-25T14:12:03.117Z,11.00
2023-05-25T14:17:02.419Z,17.83
2023-05-25T14:19:31.179Z,7.47
2023-05-25T14:24:44.410Z,8.60
2023-05-25T14:27:13.598Z,13.00
2023-05-25T14:29:42.576Z,12.55
2023-05-25T14:32:11.618Z,10.73
2023-05-25T14:34:40.337Z,10.30
2023-05-25T14:37:09.288Z,14.18
2023-05-25T14:39:38.871Z,10.02
2023-05-25T14:42:09.507Z,10.00
2023-05-25T14:44:39.557Z,10.55
2023-05-25T14:47:11.874Z,10.73
2023-05-25T14:49:41.171Z,10.82
2023-05-25T14:52:10.329Z,11.60
2023-05-25T14:54:44.912Z,9.50
2023-05-25T14:57:16.394Z,13.25
2023-05-25T14:59:45.550Z,18.73
2023-05-25T15:02:14.646Z,11.07
2023-05-25T15:04:43.282Z,11.35
2023-05-25T15:07:13.084Z,12.27
2023-05-25T15:09:42.406Z,10.90
2023-05-25T15:12:11.416Z,9.25
2023-05-25T15:14:42.510Z,13.85
2023-05-25T15:17:11.581Z,12.90
2023-05-25T15:19:40.091Z,8.63
2023-05-25T15:22:09.124Z,11.38
2023-05-25T15:24:38.103Z,11.93
2023-05-25T15:27:07.281Z,14.13
2023-05-25T15:29:36.340Z,13.32
2023-05-25T15:32:08.029Z,15.80
2023-05-25T15:34:37.442Z,8.95
2023-05-25T15:37:06.794Z,13.63
2023-05-25T15:39:35.753Z,10.05
2023-05-25T15:42:04.931Z,11.10
2023-05-25T15:44:34.122Z,5.87
2023-05-25T15:47:03.114Z,12.17
2023-05-25T15:49:36.993Z,9.82
2023-05-25T15:52:06.839Z,11.68
2023-05-25T15:54:35.921Z,13.02
2023-05-25T15:57:05.063Z,8.88
2023-05-25T15:59:34.138Z,10.98
2023-05-25T16:02:03.158Z,9.67
2023-05-25T16:04:33.226Z,10.20
2023-05-25T16:07:02.214Z,11.63
2023-05-25T16:09:31.713Z,10.90
2023-05-25T16:12:01.124Z,16.85
2023-05-25T16:14:30.145Z,14.10
2023-05-25T16:16:59.214Z,16.17
2023-05-25T16:19:29.117Z,66.60
2023-05-25T16:21:59.682Z,12.18
2023-05-25T16:24:28.763Z,11.50
2023-05-25T16:26:58.269Z,13.10
2023-05-25T16:29:27.703Z,10.93
2023-05-25T16:31:56.830Z,13.57
2023-05-25T16:34:25.978Z,10.90
2023-05-25T16:36:55.189Z,19.47
2023-05-25T16:39:25.649Z,13.33
2023-05-25T16:41:54.779Z,10.85
2023-05-25T16:44:24.005Z,17.30
2023-05-25T16:46:52.690Z,12.55
2023-05-25T16:49:21.620Z,11.85
2023-05-25T16:51:50.787Z,21.00
2023-05-25T16:54:19.935Z,10.48
2023-05-25T16:56:50.377Z,15.05
2023-05-25T16:59:19.698Z,11.00
2023-05-25T17:01:48.253Z,15.93
2023-05-25T17:04:17.411Z,15.47
2023-05-25T17:06:46.394Z,9.60
2023-05-25T17:09:15.523Z,13.52
2023-05-25T17:11:44.530Z,10.27
2023-05-25T17:14:14.924Z,14.48
2023-05-25T17:19:15.091Z,12.75
2023-05-25T17:21:44.279Z,11.60
2023-05-25T17:24:13.309Z,10.30
2023-05-25T17:26:42.322Z,10.10
2023-05-25T17:29:11.332Z,17.75
2023-05-25T17:31:41.286Z,10.90
2023-05-25T17:34:10.395Z,11.63
2023-05-25T17:36:39.337Z,12.95
2023-05-25T17:39:08.449Z,13.73
2023-05-25T17:41:37.590Z,19.05
2023-05-25T17:44:06.637Z,14.90
2023-05-25T17:46:36.455Z,13.77
2023-05-25T17:49:07.069Z,12.95
2023-05-25T17:51:37.678Z,14.32
2023-05-25T17:54:06.742Z,17.75
2023-05-25T17:56:35.828Z,14.07
2023-05-25T17:59:04.761Z,12.00
2023-05-25T18:01:34.665Z,13.95
2023-05-25T18:06:34.151Z,11.20
2023-05-25T18:09:03.122Z,14.73
2023-05-25T18:11:33.697Z,17.55
2023-05-25T18:14:03.007Z,11.52
2023-05-25T18:16:31.662Z,17.38
2023-05-25T18:19:00.809Z,15.40
2023-05-25T18:21:29.818Z,10.80
2023-05-25T18:24:00.636Z,15.93
2023-05-25T18:26:30.576Z,13.02
2023-05-25T18:28:59.622Z,13.63
2023-05-25T18:31:30.672Z,17.60
2023-05-25T18:34:00.391Z,15.10
2023-05-25T18:36:31.559Z,11.60
2023-05-25T18:39:01.993Z,13.20
2023-05-25T18:41:31.198Z,11.10
2023-05-25T18:44:00.262Z,19.98
2023-05-25T18:46:29.493Z,12.80
2023-05-25T18:48:58.637Z,15.30
2023-05-25T18:51:27.690Z,12.85
2023-05-25T18:53:58.710Z,16.90
2023-05-25T18:56:29.116Z,14.27
2023-05-25T18:58:57.924Z,15.63
2023-05-25T19:01:26.990Z,17.45
2023-05-25T19:03:58.328Z,11.50
2023-05-25T19:06:28.134Z,10.65
2023-05-25T19:08:57.117Z,11.43
2023-05-25T19:11:26.184Z,14.00
2023-05-25T19:13:56.160Z,15.95
2023-05-25T19:18:53.972Z,10.88
2023-05-25T19:21:23.121Z,20.75
2023-05-25T19:23:52.072Z,11.35
2023-05-25T19:26:21.002Z,16.35
2023-05-25T19:28:49.593Z,19.90
2023-05-25T19:31:21.620Z,14.45
2023-05-25T19:33:50.946Z,14.43
2023-05-25T19:36:19.976Z,18.15
2023-05-25T19:38:48.950Z,13.27
2023-05-25T19:41:18.055Z,17.75
2023-05-25T19:43:46.602Z,20.58
2023-05-25T19:46:15.762Z,12.55
2023-05-25T19:48:46.096Z,14.50
2023-05-25T19:53:43.774Z,12.95
2023-05-25T19:56:12.820Z,16.50
2023-05-25T19:58:41.836Z,13.23
2023-05-25T20:01:11.056Z,15.77
2023-05-25T20:03:40.099Z,14.68
2023-05-25T20:06:10.851Z,16.02
2023-05-25T20:08:39.897Z,12.38
2023-05-25T20:11:08.862Z,13.45
2023-05-25T20:13:37.536Z,14.27
2023-05-25T20:16:10.233Z,13.55
2023-05-25T20:18:39.456Z,18.90
2023-05-25T20:21:08.493Z,16.85
2023-05-25T20:23:38.972Z,15.63
2023-05-25T20:26:08.670Z,21.42
2023-05-25T20:28:37.263Z,12.60
2023-05-25T20:31:06.579Z,11.50
2023-05-25T20:33:35.624Z,13.88
2023-05-25T20:36:04.515Z,16.73
2023-05-25T20:38:33.485Z,15.05
2023-05-25T20:41:03.815Z,11.85
2023-05-25T20:43:32.453Z,18.63
2023-05-25T20:46:01.616Z,13.20
2023-05-25T20:48:30.776Z,19.30
2023-05-25T20:50:59.768Z,14.18
2023-05-25T20:53:28.923Z,21.05
2023-05-25T20:55:58.803Z,13.68
2023-05-25T20:58:28.880Z,14.33
2023-05-25T21:00:57.933Z,19.63
2023-05-25T21:03:27.069Z,14.13
2023-05-25T21:05:56.102Z,13.77
2023-05-25T21:08:25.285Z,13.85
2023-05-25T21:10:53.888Z,15.02
2023-05-25T21:13:23.238Z,14.30
2023-05-25T21:15:53.883Z,18.08
2023-05-25T21:18:22.981Z,15.45
2023-05-25T21:20:51.915Z,17.77
2023-05-25T21:23:20.955Z,19.85
2023-05-25T21:25:49.654Z,15.75
2023-05-25T21:28:18.629Z,17.45
2023-05-25T21:30:47.698Z,15.73
2023-05-25T21:33:18.226Z,17.95
2023-05-25T21:35:47.304Z,23.23
2023-05-25T21:38:16.270Z,16.60
2023-05-25T21:40:44.884Z,16.05
2023-05-25T21:43:13.878Z,17.30
2023-05-25T21:45:42.982Z,24.13
2023-05-25T21:48:12.089Z,16.75
2023-05-25T21:50:42.708Z,13.40
2023-05-25T21:53:11.709Z,14.40
2023-05-25T21:55:41.010Z,13.68
2023-05-25T21:58:10.139Z,14.10
2023-05-25T22:00:39.112Z,11.98
2023-05-25T22:03:09.192Z,12.50
2023-05-25T22:05:38.756Z,16.30
2023-05-25T22:08:09.306Z,11.77
2023-05-25T22:10:37.966Z,10.68
2023-05-25T22:13:07.330Z,13.77
2023-05-25T22:15:36.297Z,11.20
2023-05-25T22:18:07.086Z,12.00
2023-05-25T22:20:38.568Z,10.52
2023-05-25T22:23:09.257Z,18.45
2023-05-25T22:25:37.863Z,10.75
2023-05-25T22:28:06.868Z,11.25
2023-05-25T22:30:35.939Z,15.60
2023-05-25T22:33:05.057Z,13.65
2023-05-25T22:35:34.253Z,11.65
2023-05-25T22:38:03.085Z,12.55
2023-05-25T22:40:33.141Z,12.18
2023-05-25T22:43:02.177Z,12.68
2023-05-25T22:45:31.157Z,12.02
2023-05-25T22:48:00.331Z,14.57
2023-05-25T22:50:29.223Z,11.88
2023-05-25T22:52:58.390Z,11.68
2023-05-25T22:55:26.902Z,12.38
2023-05-25T22:57:57.440Z,21.80
2023-05-25T23:00:26.468Z,16.85
2023-05-25T23:02:55.566Z,13.38
2023-05-25T23:05:24.624Z,13.80
2023-05-25T23:07:53.097Z,13.55
2023-05-25T23:10:22.101Z,13.02
2023-05-25T23:12:51.492Z,13.13
2023-05-25T23:15:22.494Z,12.98
2023-05-25T23:17:51.505Z,13.35
2023-05-25T23:20:20.551Z,14.25
2023-05-25T23:22:49.377Z,13.07
2023-05-25T23:25:18.321Z,14.05
2023-05-25T23:27:47.299Z,13.15
2023-05-25T23:30:16.646Z,14.07
2023-05-25T23:32:47.116Z,11.98
2023-05-25T23:35:16.146Z,12.73
2023-05-25T23:37:45.027Z,11.48
2023-05-25T23:40:14.178Z,10.75
2023-05-25T23:42:45.236Z,10.43
2023-05-25T23:45:14.478Z,10.80
2023-05-25T23:47:43.457Z,14.18
2023-05-25T23:50:14.008Z,11.05
2023-05-25T23:52:42.692Z,9.48
2023-05-25T23:55:11.678Z,10.48
2023-05-25T23:57:40.897Z,10.45
